createdAt,value
2023-05-15T00:01:30.673Z,16.06
2023-05-15T00:03:57.255Z,15.97
2023-05-15T00:06:25.280Z,15.89
2023-05-15T00:08:52.083Z,15.86
2023-05-15T00:11:18.636Z,15.91
2023-05-15T00:13:45.145Z,15.93
2023-05-15T00:16:11.995Z,15.99
2023-05-15T00:18:38.580Z,15.98
2023-05-15T00:21:05.227Z,15.91
2023-05-15T00:23:33.122Z,15.91
2023-05-15T00:25:59.938Z,15.87
2023-05-15T00:28:26.495Z,15.86
2023-05-15T00:30:53.161Z,15.80
2023-05-15T00:33:19.847Z,15.74
2023-05-15T00:35:46.572Z,15.75
2023-05-15T00:38:13.271Z,15.65
2023-05-15T00:40:42.948Z,15.72
2023-05-15T00:43:10.981Z,15.58
2023-05-15T00:45:39.652Z,15.68
2023-05-15T00:48:09.375Z,15.53
2023-05-15T00:50:36.962Z,15.56
2023-05-15T00:53:03.821Z,15.58
2023-05-15T00:55:32.156Z,15.61
2023-05-15T00:58:01.361Z,15.61
2023-05-15T01:00:28.507Z,15.57
2023-05-15T01:02:55.399Z,15.51
2023-05-15T01:05:22.103Z,15.50
2023-05-15T01:07:56.427Z,15.49
2023-05-15T01:10:23.076Z,15.37
2023-05-15T01:12:53.198Z,15.39
2023-05-15T01:15:21.408Z,15.32
2023-05-15T01:17:48.042Z,15.38
2023-05-15T01:20:18.543Z,15.29
2023-05-15T01:22:59.365Z,15.30
2023-05-15T01:25:49.750Z,15.33
2023-05-15T01:28:23.774Z,15.28
2023-05-15T01:30:52.056Z,15.19
2023-05-15T01:33:24.470Z,15.36
2023-05-15T01:35:57.990Z,15.42
2023-05-15T01:38:30.532Z,15.61
2023-05-15T01:41:02.584Z,15.70
2023-05-15T01:43:32.511Z,15.79
2023-05-15T01:45:59.356Z,15.79
2023-05-15T01:48:27.520Z,15.80
2023-05-15T01:50:58.328Z,15.87
2023-05-15T01:53:26.697Z,15.73
2023-05-15T01:55:53.975Z,15.70
2023-05-15T01:58:21.292Z,15.84
2023-05-15T02:00:50.577Z,16.00
2023-05-15T02:03:18.506Z,15.89
2023-05-15T02:05:46.727Z,15.77
2023-05-15T02:08:13.982Z,15.76
2023-05-15T02:10:41.134Z,15.92
2023-05-15T02:13:11.206Z,15.98
2023-05-15T02:15:38.596Z,16.09
2023-05-15T02:18:06.898Z,16.21
2023-05-15T02:20:33.695Z,16.28
2023-05-15T02:23:00.484Z,16.35
2023-05-15T02:25:38.521Z,16.41
2023-05-15T02:28:12.709Z,16.39
2023-05-15T02:30:46.346Z,16.42
2023-05-15T02:33:22.873Z,16.41
2023-05-15T02:35:54.787Z,16.49
2023-05-15T02:38:25.526Z,16.40
2023-05-15T02:40:55.011Z,16.45
2023-05-15T02:43:22.657Z,16.42
2023-05-15T02:45:50.063Z,16.43
2023-05-15T02:48:18.327Z,16.33
2023-05-15T02:50:44.959Z,16.22
2023-05-15T02:53:11.579Z,16.26
2023-05-15T02:55:38.379Z,16.17
2023-05-15T02:58:05.424Z,16.05
2023-05-15T03:00:32.057Z,16.11
2023-05-15T03:02:58.749Z,16.06
2023-05-15T03:05:27.246Z,15.96
2023-05-15T03:07:54.059Z,16.15
2023-05-15T03:10:20.666Z,16.11
2023-05-15T03:12:47.186Z,16.09
2023-05-15T03:15:13.791Z,16.13
2023-05-15T03:17:40.444Z,16.16
2023-05-15T03:20:08.091Z,16.03
2023-05-15T03:22:35.946Z,16.08
2023-05-15T03:25:03.063Z,16.16
2023-05-15T03:27:29.611Z,16.11
2023-05-15T03:29:56.585Z,16.12
2023-05-15T03:32:23.201Z,16.05
2023-05-15T03:34:49.816Z,16.11
2023-05-15T03:37:16.572Z,16.02
2023-05-15T03:39:44.666Z,15.96
2023-05-15T03:42:11.224Z,16.08
2023-05-15T03:44:38.085Z,16.13
2023-05-15T03:47:05.004Z,16.17
2023-05-15T03:49:31.631Z,16.28
2023-05-15T03:51:58.339Z,16.17
2023-05-15T03:54:24.960Z,16.11
2023-05-15T03:56:53.204Z,16.07
2023-05-15T03:59:19.923Z,16.14
2023-05-15T04:02:03.031Z,15.99
2023-05-15T04:04:31.408Z,16.14
2023-05-15T04:06:58.038Z,16.16
2023-05-15T04:09:24.607Z,16.13
2023-05-15T04:11:51.214Z,16.01
2023-05-15T04:14:19.121Z,16.00
2023-05-15T04:16:45.735Z,15.96
2023-05-15T04:19:12.428Z,16.06
2023-05-15T04:21:39.061Z,15.90
2023-05-15T04:24:07.245Z,16.01
2023-05-15T04:26:33.889Z,16.02
2023-05-15T04:29:04.575Z,16.10
2023-05-15T04:31:32.941Z,15.92
2023-05-15T04:33:59.759Z,15.81
2023-05-15T04:36:26.439Z,15.86
2023-05-15T04:38:53.059Z,15.91
2023-05-15T04:41:19.653Z,15.98
2023-05-15T04:43:49.360Z,16.02
2023-05-15T04:46:15.976Z,16.09
2023-05-15T04:49:31.889Z,16.04
2023-05-15T04:52:01.314Z,15.96
2023-05-15T04:54:40.033Z,15.71
2023-05-15T04:57:06.620Z,15.83
2023-05-15T04:59:33.217Z,15.87
2023-05-15T05:01:59.975Z,15.86
2023-05-15T05:04:28.022Z,15.87
2023-05-15T05:06:54.678Z,15.82
2023-05-15T05:09:21.330Z,15.87
2023-05-15T05:11:47.936Z,15.88
2023-05-15T05:14:15.173Z,16.00
2023-05-15T05:16:41.963Z,16.06
2023-05-15T05:19:08.543Z,16.08
2023-05-15T05:21:36.572Z,16.32
2023-05-15T05:24:03.428Z,16.51
2023-05-15T05:26:29.990Z,16.56
2023-05-15T05:28:56.537Z,16.65
2023-05-15T05:31:23.200Z,16.53
2023-05-15T05:33:49.848Z,16.55
2023-05-15T05:36:16.390Z,16.68
2023-05-15T05:38:44.508Z,16.67
2023-05-15T05:41:11.056Z,16.65
2023-05-15T05:43:37.606Z,16.59
2023-05-15T05:46:04.174Z,16.62
2023-05-15T05:48:30.718Z,16.59
2023-05-15T05:50:58.013Z,16.69
2023-05-15T05:53:24.545Z,16.65
2023-05-15T05:55:52.536Z,16.62
2023-05-15T05:58:25.648Z,16.61
2023-05-15T06:00:53.155Z,16.73
2023-05-15T06:03:20.218Z,16.77
2023-05-15T06:05:46.875Z,16.68
2023-05-15T06:08:13.374Z,16.60
2023-05-15T06:10:39.832Z,16.65
2023-05-15T06:13:07.816Z,16.79
2023-05-15T06:15:34.367Z,16.73
2023-05-15T06:18:00.856Z,16.69
2023-05-15T06:20:27.796Z,16.75
2023-05-15T06:22:54.415Z,16.61
2023-05-15T06:25:21.233Z,16.64
2023-05-15T06:27:47.696Z,16.93
2023-05-15T06:30:15.698Z,17.08
2023-05-15T06:32:42.321Z,17.20
2023-05-15T06:35:10.109Z,17.08
2023-05-15T06:37:37.038Z,17.01
2023-05-15T06:40:04.166Z,17.17
2023-05-15T06:42:30.620Z,17.20
2023-05-15T06:44:57.129Z,17.27
2023-05-15T06:47:25.222Z,17.37
2023-05-15T06:49:54.063Z,17.62
2023-05-15T06:52:20.697Z,17.50
2023-05-15T06:54:47.436Z,17.29
2023-05-15T06:57:14.046Z,17.28
2023-05-15T06:59:40.618Z,17.39
2023-05-15T07:02:07.553Z,17.55
2023-05-15T07:04:35.673Z,17.88
2023-05-15T07:07:02.362Z,17.66
2023-05-15T07:09:28.972Z,17.87
2023-05-15T07:11:55.530Z,17.61
2023-05-15T07:14:22.100Z,17.79
2023-05-15T07:16:48.762Z,17.82
2023-05-15T07:19:18.168Z,17.88
2023-05-15T07:21:48.938Z,17.77
2023-05-15T07:24:15.495Z,17.56
2023-05-15T07:26:54.225Z,17.43
2023-05-15T07:29:24.731Z,17.45
2023-05-15T07:31:51.336Z,17.74
2023-05-15T07:34:18.159Z,17.99
2023-05-15T07:36:46.116Z,18.00
2023-05-15T07:39:12.675Z,18.29
2023-05-15T07:41:39.281Z,18.71
2023-05-15T07:44:05.821Z,19.21
2023-05-15T07:46:33.234Z,19.39
2023-05-15T07:48:59.818Z,19.31
2023-05-15T07:51:26.727Z,19.66
2023-05-15T07:53:54.666Z,19.63
2023-05-15T07:56:21.382Z,19.82
2023-05-15T07:58:48.006Z,20.21
2023-05-15T08:01:14.632Z,21.26
2023-05-15T08:03:41.307Z,21.78
2023-05-15T08:06:07.989Z,21.17
2023-05-15T08:08:34.568Z,21.78
2023-05-15T08:11:02.733Z,21.47
2023-05-15T08:13:29.785Z,21.37
2023-05-15T08:15:56.337Z,21.95
2023-05-15T08:18:22.950Z,22.03
2023-05-15T08:20:49.552Z,22.37
2023-05-15T08:23:16.142Z,22.03
2023-05-15T08:25:42.698Z,22.68
2023-05-15T08:28:10.759Z,22.29
2023-05-15T08:30:37.423Z,21.74
2023-05-15T08:33:05.644Z,21.64
2023-05-15T08:35:32.395Z,22.02
2023-05-15T08:38:00.999Z,22.04
2023-05-15T08:43:03.709Z,22.60
2023-05-15T08:45:31.946Z,23.00
2023-05-15T08:47:59.005Z,23.16
2023-05-15T08:50:26.472Z,23.23
2023-05-15T08:52:55.528Z,23.36
2023-05-15T08:55:22.309Z,23.62
2023-05-15T08:57:49.189Z,22.96
2023-05-15T09:00:17.568Z,23.46
2023-05-15T09:02:45.653Z,23.91
2023-05-15T09:05:12.386Z,24.49
2023-05-15T09:07:39.467Z,24.11
2023-05-15T09:10:07.199Z,23.66
2023-05-15T09:12:34.588Z,23.91
2023-05-15T09:15:12.678Z,24.55
2023-05-15T09:17:39.746Z,24.35
2023-05-15T09:20:25.114Z,24.37
2023-05-15T09:22:51.733Z,24.22
2023-05-15T09:25:32.503Z,24.47
2023-05-15T09:27:59.646Z,24.18
2023-05-15T09:30:26.788Z,23.95
2023-05-15T09:32:53.602Z,23.92
2023-05-15T09:35:34.900Z,23.89
2023-05-15T09:38:03.718Z,24.14
2023-05-15T09:40:31.667Z,24.01
2023-05-15T09:42:58.564Z,23.56
2023-05-15T09:45:26.053Z,23.78
2023-05-15T09:47:53.200Z,22.96
2023-05-15T09:50:36.805Z,23.08
2023-05-15T09:53:04.416Z,23.16
2023-05-15T09:55:32.427Z,23.43
2023-05-15T09:58:06.176Z,23.81
2023-05-15T10:00:33.805Z,24.07
2023-05-15T10:03:02.000Z,23.76
2023-05-15T10:05:42.540Z,23.43
2023-05-15T10:08:11.719Z,23.56
2023-05-15T10:10:38.508Z,23.46
2023-05-15T10:13:07.789Z,23.42
2023-05-15T10:15:35.077Z,23.29
2023-05-15T10:18:04.564Z,23.22
2023-05-15T10:20:32.864Z,23.37
2023-05-15T10:23:03.104Z,23.52
2023-05-15T10:25:37.895Z,23.40
2023-05-15T10:28:09.938Z,23.38
2023-05-15T10:30:36.943Z,23.66
2023-05-15T10:33:05.612Z,23.71
2023-05-15T10:35:33.724Z,23.73
2023-05-15T10:38:03.580Z,23.70
2023-05-15T10:40:32.326Z,23.99
2023-05-15T10:43:00.280Z,23.98
2023-05-15T10:45:27.782Z,23.76
2023-05-15T10:47:55.042Z,23.83
2023-05-15T10:50:21.669Z,23.61
2023-05-15T10:52:51.022Z,23.52
2023-05-15T10:55:18.055Z,23.58
2023-05-15T10:57:47.181Z,23.63
2023-05-15T11:00:25.437Z,23.41
2023-05-15T11:02:52.766Z,23.87
2023-05-15T11:05:19.545Z,23.94
2023-05-15T11:08:24.937Z,23.68
2023-05-15T11:10:51.893Z,24.04
2023-05-15T11:13:20.034Z,24.09
2023-05-15T11:15:47.597Z,24.23
2023-05-15T11:18:14.877Z,24.50
2023-05-15T11:20:42.700Z,24.28
2023-05-15T11:23:09.692Z,23.70
2023-05-15T11:25:36.828Z,23.69
2023-05-15T11:28:04.260Z,23.52
2023-05-15T11:30:39.678Z,23.08
2023-05-15T11:33:08.054Z,23.28
2023-05-15T11:35:37.080Z,23.29
2023-05-15T11:38:05.225Z,23.05
2023-05-15T11:40:32.745Z,23.22
2023-05-15T11:43:01.772Z,22.89
2023-05-15T11:45:30.487Z,23.07
2023-05-15T11:48:00.534Z,23.43
2023-05-15T11:50:27.919Z,23.54
2023-05-15T11:52:54.903Z,23.48
2023-05-15T11:55:22.253Z,23.66
2023-05-15T11:57:49.065Z,23.55
2023-05-15T12:00:16.152Z,23.48
2023-05-15T12:02:42.808Z,23.72
2023-05-15T12:05:11.285Z,23.76
2023-05-15T12:07:38.726Z,23.70
2023-05-15T12:10:06.427Z,23.93
2023-05-15T12:12:35.470Z,23.95
2023-05-15T12:15:02.093Z,24.13
2023-05-15T12:17:28.651Z,24.35
2023-05-15T12:19:56.951Z,23.95
2023-05-15T12:22:24.899Z,23.82
2023-05-15T12:24:51.558Z,23.72
2023-05-15T12:27:18.485Z,24.04
2023-05-15T12:29:45.354Z,23.91
2023-05-15T12:32:12.382Z,24.14
2023-05-15T12:34:39.104Z,24.38
2023-05-15T12:37:05.700Z,24.80
2023-05-15T12:39:33.638Z,24.05
2023-05-15T12:42:00.288Z,23.81
2023-05-15T12:44:26.935Z,23.90
2023-05-15T12:46:54.128Z,24.39
2023-05-15T12:49:24.102Z,24.46
2023-05-15T12:51:50.640Z,24.17
2023-05-15T12:54:17.752Z,24.38
2023-05-15T12:56:47.323Z,24.38
2023-05-15T12:59:14.011Z,24.88
2023-05-15T13:01:41.265Z,24.46
2023-05-15T13:04:09.143Z,24.58
2023-05-15T13:06:46.321Z,24.57
2023-05-15T13:09:14.030Z,24.67
2023-05-15T13:11:44.850Z,25.09
2023-05-15T13:14:11.418Z,24.89
2023-05-15T13:16:38.115Z,24.90
2023-05-15T13:19:04.845Z,25.07
2023-05-15T13:21:31.545Z,25.20
2023-05-15T13:23:58.211Z,25.12
2023-05-15T13:26:24.852Z,24.73
2023-05-15T13:28:53.513Z,25.36
2023-05-15T13:31:20.273Z,25.33
2023-05-15T13:33:47.019Z,25.08
2023-05-15T13:36:13.659Z,25.15
2023-05-15T13:38:40.303Z,24.37
2023-05-15T13:41:06.859Z,24.07
2023-05-15T13:43:33.493Z,23.54
2023-05-15T13:46:01.434Z,23.37
2023-05-15T13:48:28.154Z,23.75
2023-05-15T13:50:55.116Z,23.70
2023-05-15T13:53:21.752Z,24.51
2023-05-15T13:55:48.376Z,24.35
2023-05-15T13:58:15.206Z,24.59
2023-05-15T14:00:43.452Z,23.99
2023-05-15T14:03:14.051Z,23.98
2023-05-15T14:05:41.844Z,24.24
2023-05-15T14:08:08.298Z,24.41
2023-05-15T14:10:36.027Z,24.70
2023-05-15T14:13:03.779Z,24.71
2023-05-15T14:15:30.474Z,24.79
2023-05-15T14:17:59.687Z,25.16
2023-05-15T14:20:27.962Z,25.38
2023-05-15T14:22:54.682Z,25.34
2023-05-15T14:25:21.259Z,24.52
2023-05-15T14:27:47.893Z,23.92
2023-05-15T14:30:17.316Z,24.06
2023-05-15T14:32:43.969Z,24.35
2023-05-15T14:35:10.567Z,24.43
2023-05-15T14:37:38.491Z,24.58
2023-05-15T14:40:09.130Z,24.93
2023-05-15T14:42:35.728Z,24.91
2023-05-15T14:45:02.527Z,25.00
2023-05-15T14:47:29.102Z,24.06
2023-05-15T14:49:55.788Z,24.43
2023-05-15T14:52:22.361Z,24.20
2023-05-15T14:55:00.735Z,23.62
2023-05-15T14:57:34.265Z,23.87
2023-05-15T15:00:00.823Z,23.64
2023-05-15T15:02:27.547Z,23.79
2023-05-15T15:04:54.158Z,24.00
2023-05-15T15:07:23.212Z,24.28
2023-05-15T15:09:51.177Z,24.05
2023-05-15T15:12:17.744Z,24.22
2023-05-15T15:14:44.336Z,24.39
2023-05-15T15:17:10.928Z,24.41
2023-05-15T15:19:37.494Z,24.37
2023-05-15T15:22:04.422Z,24.45
2023-05-15T15:24:30.997Z,24.24
2023-05-15T15:26:59.509Z,23.81
2023-05-15T15:29:28.924Z,23.83
2023-05-15T15:31:55.944Z,23.03
2023-05-15T15:34:22.612Z,23.00
2023-05-15T15:36:49.391Z,23.26
2023-05-15T15:39:16.279Z,22.27
2023-05-15T15:41:42.954Z,22.46
2023-05-15T15:44:11.176Z,22.46
2023-05-15T15:46:38.881Z,22.09
2023-05-15T15:49:07.203Z,21.44
2023-05-15T15:51:34.006Z,21.38
2023-05-15T15:54:00.726Z,21.26
2023-05-15T15:56:27.463Z,20.92
2023-05-15T15:58:54.227Z,20.91
2023-05-15T16:01:22.668Z,20.61
2023-05-15T16:03:49.657Z,20.71
2023-05-15T16:06:16.385Z,20.58
2023-05-15T16:08:42.994Z,20.52
2023-05-15T16:11:09.668Z,20.59
2023-05-15T16:13:36.239Z,20.70
2023-05-15T16:16:02.797Z,20.73
2023-05-15T16:18:30.761Z,21.06
2023-05-15T16:20:57.477Z,21.14
2023-05-15T16:23:24.260Z,21.05
2023-05-15T16:25:50.836Z,20.65
2023-05-15T16:28:17.497Z,20.51
2023-05-15T16:30:49.562Z,20.79
2023-05-15T16:33:16.693Z,21.05
2023-05-15T16:35:45.015Z,20.99
2023-05-15T16:38:11.599Z,21.20
2023-05-15T16:40:39.021Z,21.16
2023-05-15T16:43:05.614Z,20.85
2023-05-15T16:45:32.231Z,20.90
2023-05-15T16:47:58.905Z,20.84
2023-05-15T16:50:25.791Z,21.07
2023-05-15T16:52:54.112Z,20.42
2023-05-15T16:55:20.714Z,20.33
2023-05-15T16:57:47.458Z,20.48
2023-05-15T17:00:15.495Z,20.72
2023-05-15T17:02:42.366Z,20.95
2023-05-15T17:05:09.857Z,20.53
2023-05-15T17:07:36.655Z,20.72
2023-05-15T17:10:05.462Z,20.91
2023-05-15T17:12:32.323Z,20.86
2023-05-15T17:14:59.484Z,20.58
2023-05-15T17:17:26.485Z,20.49
2023-05-15T17:19:53.297Z,20.72
2023-05-15T17:22:20.794Z,20.76
2023-05-15T17:24:50.924Z,20.72
2023-05-15T17:27:20.144Z,20.82
2023-05-15T17:29:47.451Z,20.71
2023-05-15T17:32:14.401Z,20.27
2023-05-15T17:34:41.183Z,20.21
2023-05-15T17:37:08.705Z,19.82
2023-05-15T17:39:35.378Z,19.78
2023-05-15T17:42:01.969Z,19.54
2023-05-15T17:44:30.045Z,19.50
2023-05-15T17:46:59.020Z,19.53
2023-05-15T17:49:25.874Z,19.73
2023-05-15T17:51:52.673Z,19.56
2023-05-15T17:54:19.885Z,19.34
2023-05-15T17:56:46.552Z,19.30
2023-05-15T17:59:13.140Z,19.14
2023-05-15T18:01:41.365Z,18.67
2023-05-15T18:04:08.123Z,18.46
2023-05-15T18:06:35.285Z,18.31
2023-05-15T18:09:01.922Z,18.37
2023-05-15T18:11:28.632Z,18.27
2023-05-15T18:13:55.222Z,17.71
2023-05-15T18:16:22.090Z,17.76
2023-05-15T18:18:50.244Z,17.69
2023-05-15T18:21:17.264Z,17.39
2023-05-15T18:23:44.078Z,17.12
2023-05-15T18:26:10.815Z,17.26
2023-05-15T18:28:37.453Z,16.82
2023-05-15T18:31:04.140Z,16.78
2023-05-15T18:33:30.874Z,16.51
2023-05-15T18:35:59.033Z,16.42
2023-05-15T18:38:25.803Z,16.12
2023-05-15T18:40:52.485Z,15.62
2023-05-15T18:43:19.105Z,15.59
2023-05-15T18:45:45.811Z,15.42
2023-05-15T18:48:12.516Z,15.48
2023-05-15T18:50:39.362Z,15.57
2023-05-15T18:53:07.423Z,15.57
2023-05-15T18:55:34.226Z,15.92
2023-05-15T18:58:00.865Z,16.18
2023-05-15T19:00:37.986Z,16.32
2023-05-15T19:03:06.455Z,16.21
2023-05-15T19:05:33.373Z,16.37
2023-05-15T19:08:00.235Z,16.35
2023-05-15T19:10:28.411Z,16.46
2023-05-15T19:12:55.458Z,16.30
2023-05-15T19:15:22.452Z,16.21
2023-05-15T19:17:49.183Z,15.95
2023-05-15T19:20:15.925Z,16.08
2023-05-15T19:22:44.603Z,16.01
2023-05-15T19:25:11.272Z,16.03
2023-05-15T19:27:39.464Z,16.13
2023-05-15T19:30:07.589Z,15.87
2023-05-15T19:32:34.438Z,15.81
2023-05-15T19:35:01.388Z,15.74
2023-05-15T19:37:28.023Z,15.84
2023-05-15T19:39:54.772Z,15.92
2023-05-15T19:42:21.410Z,15.82
2023-05-15T19:44:49.397Z,15.91
2023-05-15T19:47:16.130Z,15.84
2023-05-15T19:49:42.771Z,15.96
2023-05-15T19:52:09.403Z,15.83
2023-05-15T19:54:36.020Z,15.94
2023-05-15T19:57:05.898Z,15.60
2023-05-15T19:59:32.745Z,15.53
2023-05-15T20:02:03.267Z,15.67
2023-05-15T20:04:30.079Z,15.82
2023-05-15T20:06:56.724Z,15.90
2023-05-15T20:09:23.386Z,15.75
2023-05-15T20:12:04.434Z,15.92
2023-05-15T20:14:32.716Z,15.83
2023-05-15T20:17:03.765Z,15.78
2023-05-15T20:19:33.480Z,16.01
2023-05-15T20:22:00.116Z,15.98
2023-05-15T20:24:26.733Z,15.83
2023-05-15T20:26:53.346Z,15.89
2023-05-15T20:29:19.971Z,15.73
2023-05-15T20:31:46.686Z,15.94
2023-05-15T20:34:14.781Z,16.00
2023-05-15T20:36:41.450Z,16.00
2023-05-15T20:39:08.025Z,15.92
2023-05-15T20:41:34.548Z,15.79
2023-05-15T20:44:01.143Z,15.87
2023-05-15T20:46:29.722Z,15.90
2023-05-15T20:48:56.939Z,15.65
2023-05-15T20:51:24.964Z,15.53
2023-05-15T20:53:51.642Z,15.62
2023-05-15T20:56:18.664Z,15.66
2023-05-15T20:58:46.055Z,15.67
2023-05-15T21:01:12.635Z,15.66
2023-05-15T21:03:39.284Z,15.78
2023-05-15T21:06:06.666Z,15.74
2023-05-15T21:08:34.813Z,15.74
2023-05-15T21:11:01.339Z,15.77
2023-05-15T21:13:28.684Z,15.89
2023-05-15T21:15:55.369Z,15.70
2023-05-15T21:18:22.048Z,15.61
2023-05-15T21:20:48.582Z,15.57
2023-05-15T21:23:15.142Z,15.63
2023-05-15T21:25:44.977Z,15.65
2023-05-15T21:28:11.521Z,15.70
2023-05-15T21:30:38.112Z,15.74
2023-05-15T21:33:04.729Z,15.72
2023-05-15T21:35:31.335Z,15.86
2023-05-15T21:37:59.476Z,15.86
2023-05-15T21:40:26.297Z,15.82
2023-05-15T21:42:54.241Z,15.78
2023-05-15T21:45:20.816Z,15.69
2023-05-15T21:47:47.416Z,15.68
2023-05-15T21:50:14.024Z,15.59
2023-05-15T21:52:40.593Z,15.41
2023-05-15T21:55:08.171Z,15.49
2023-05-15T21:57:34.723Z,15.41
2023-05-15T22:00:03.726Z,15.57
2023-05-15T22:02:30.388Z,15.59
2023-05-15T22:04:57.531Z,15.50
2023-05-15T22:07:24.092Z,15.39
2023-05-15T22:09:50.642Z,15.52
2023-05-15T22:12:17.362Z,15.30
2023-05-15T22:14:57.060Z,15.40
2023-05-15T22:17:26.246Z,15.36
2023-05-15T22:19:53.198Z,15.29
2023-05-15T22:22:20.366Z,15.36
2023-05-15T22:24:46.936Z,15.30
2023-05-15T22:27:13.840Z,15.30
2023-05-15T22:29:40.371Z,15.23
2023-05-15T22:32:07.514Z,15.32
2023-05-15T22:34:35.488Z,15.34
2023-05-15T22:37:02.061Z,15.26
2023-05-15T22:39:28.738Z,14.97
2023-05-15T22:41:55.284Z,14.86
2023-05-15T22:44:21.706Z,15.07
2023-05-15T22:46:48.289Z,15.00
2023-05-15T22:49:14.855Z,15.10
2023-05-15T22:51:42.793Z,14.99
2023-05-15T22:54:09.362Z,14.89
2023-05-15T22:56:35.986Z,14.84
2023-05-15T22:59:02.562Z,14.61
2023-05-15T23:01:29.207Z,14.66
2023-05-15T23:03:55.938Z,14.59
2023-05-15T23:06:22.570Z,14.48
2023-05-15T23:08:50.488Z,14.56
2023-05-15T23:11:17.244Z,14.15
2023-05-15T23:13:43.819Z,14.12
2023-05-15T23:16:10.627Z,14.25
2023-05-15T23:18:37.296Z,14.37
2023-05-15T23:21:03.885Z,14.37
2023-05-15T23:23:30.503Z,14.37
2023-05-15T23:25:58.407Z,14.18
2023-05-15T23:28:24.970Z,14.07
2023-05-15T23:30:52.695Z,14.04
2023-05-15T23:33:19.324Z,13.90
2023-05-15T23:35:45.916Z,13.85
2023-05-15T23:38:12.575Z,13.65
2023-05-15T23:40:39.360Z,13.69
2023-05-15T23:43:07.761Z,13.82
2023-05-15T23:45:34.302Z,13.73
2023-05-15T23:48:01.119Z,13.70
2023-05-15T23:50:28.011Z,13.61
2023-05-15T23:52:54.936Z,13.34
2023-05-15T23:55:21.577Z,13.60
2023-05-15T23:57:48.322Z,13.10
